Claire City, South Dakota
Current Conditions -  °F | °C
As of 7:36 PM on Thursday 27 Nov 2014 (Local Time) from KETH Reporting Station
Light Snow Light Snow  
Wind Chill: -14°   Ceiling: 2600
Heat Index:   Visibility: 5mi
Dew Point:   Wind: 17mph
Humidity: 78%   Direction: 140°SE
Pressure: 30.22"   Gusts: NA
Location:  45.86°N, 97.1°W
Report Text: KETH 280136Z AUTO 14015KT 5SM -SN SCT017 BKN026 OVC075 M15/M18 A3022 RMK AO2
Loading
Personal Weather Stations






























Interactive Weather Map New forecast layout! Learn more

10-Day Weather Forecast

Advertisements
Track Severe Weather on mobile